EGKB - Biggin Hill
Distance from station: E 5mi, 14km
Updated: 06/20/2018 3:50am
Mostly Cloudy
Mostly Cloudy
 Wind from SW
Wind: SW 10 mph , 17 km/h
Temperature: 64°F , 18°C
Dew Point: 59°F , 15°C
Humidity: 83%
Barometer: 30.15 inHg , 1021 hPa
Clouds: Mostly Cloudy
Visibility: 6 miles , 10 km
Cloud details: Mostly Cloudy 1000 ft
2018/06/20 10:50 EGKB 201050Z 23009KT 190V280 9999 BKN010 18/15 Q1021